Time;durP1;ratioP1;P1;durP2;ratioP2;P2;SDS_P1;SDS_P2;PMS_P1;PMS_P2;Temp;Humidity;BMP_temperature;BMP_pressure;BME280_temperature;BME280_humidity;BME280_pressure;Samples;Min_cycle;Max_cycle;Signal;HPM_P1;HPM_P2
2021/01/04 00:00:14;;;;;;;41.17;30.40;;;1.70;99.90;;;;;;6095513;23;20958;-77
2021/01/04 00:03:02;;;;;;;33.47;29.90;;;1.80;99.90;;;;;;6097634;23;20432;-77
2021/01/04 00:05:39;;;;;;;31.93;28.27;;;1.70;99.90;;;;;;6097681;23;20385;-77
2021/01/04 00:08:31;;;;;;;32.40;28.53;;;1.80;99.90;;;;;;6097630;23;20474;-78
2021/01/04 00:11:22;;;;;;;34.90;31.20;;;1.70;99.90;;;;;;6097512;23;20407;-78
2021/01/04 00:14:05;;;;;;;36.77;29.90;;;1.70;99.90;;;;;;6095974;23;20435;-77
2021/01/04 00:16:42;;;;;;;35.77;30.97;;;1.70;99.90;;;;;;6095958;23;20878;-77
2021/01/04 00:19:14;;;;;;;37.63;32.10;;;1.80;99.90;;;;;;6097425;23;20414;-78
2021/01/04 00:21:49;;;;;;;36.20;30.97;;;1.70;99.90;;;;;;6096212;23;20414;-77
2021/01/04 00:24:21;;;;;;;40.17;33.10;;;1.80;99.90;;;;;;6096226;23;20433;-77
2021/01/04 00:26:52;;;;;;;36.73;31.63;;;1.70;99.90;;;;;;6095808;23;20398;-77
2021/01/04 00:29:20;;;;;;;37.53;30.33;;;1.80;99.90;;;;;;6095565;23;20439;-78
2021/01/04 00:31:50;;;;;;;39.20;33.37;;;1.70;99.90;;;;;;6095970;23;20410;-77
2021/01/04 00:34:22;;;;;;;37.10;30.93;;;1.70;99.90;;;;;;6095720;23;20420;-77
2021/01/04 00:37:31;;;;;;;36.57;31.87;;;1.70;99.90;;;;;;6097614;23;20458;-78
2021/01/04 00:40:04;;;;;;;35.63;30.60;;;1.70;99.90;;;;;;6095469;23;20837;-78
2021/01/04 00:42:37;;;;;;;43.30;32.33;;;1.70;99.90;;;;;;6097166;23;20389;-77
2021/01/04 00:45:14;;;;;;;35.83;31.63;;;1.60;99.90;;;;;;6097149;23;20385;-77
2021/01/04 00:47:53;;;;;;;38.63;32.37;;;1.60;99.90;;;;;;6096151;23;20412;-77
2021/01/04 00:50:31;;;;;;;36.80;31.27;;;1.60;99.90;;;;;;6095148;23;20437;-78
2021/01/04 00:53:03;;;;;;;38.07;32.40;;;1.60;99.90;;;;;;6097538;23;20379;-78
2021/01/04 00:55:56;;;;;;;36.43;31.77;;;1.60;99.90;;;;;;6095776;23;20465;-77
2021/01/04 00:58:49;;;;;;;41.23;31.93;;;1.60;99.90;;;;;;6099690;23;20841;-78
2021/01/04 01:01:22;;;;;;;38.73;30.30;;;1.70;99.90;;;;;;6100481;23;20868;-77
2021/01/04 01:03:55;;;;;;;38.80;32.80;;;1.70;99.90;;;;;;6098772;23;20437;-78
2021/01/04 01:06:29;;;;;;;40.07;32.13;;;1.70;99.90;;;;;;6098800;23;20409;-77
2021/01/04 01:08:58;;;;;;;34.87;31.03;;;1.70;99.90;;;;;;6099934;23;20417;-78
2021/01/04 01:11:49;;;;;;;38.80;31.33;;;1.70;99.90;;;;;;6100298;23;20497;-78
2021/01/04 01:14:22;;;;;;;40.63;33.73;;;1.70;99.90;;;;;;6098871;23;20414;-77
2021/01/04 01:17:18;;;;;;;39.30;33.83;;;1.70;99.90;;;;;;6100380;23;20382;-77
2021/01/04 01:19:47;;;;;;;42.17;32.10;;;1.70;99.90;;;;;;6099142;23;20441;-78
2021/01/04 01:22:27;;;;;;;35.57;31.10;;;1.70;99.90;;;;;;6100693;23;20390;-77
2021/01/04 01:24:53;;;;;;;40.47;32.67;;;1.60;99.90;;;;;;6098712;23;20402;-77
2021/01/04 01:27:44;;;;;;;38.50;33.33;;;1.60;99.90;;;;;;6100686;23;20405;-77
2021/01/04 01:30:56;;;;;;;38.57;31.67;;;1.60;99.90;;;;;;6098564;23;20429;-77
2021/01/04 01:33:42;;;;;;;40.33;32.97;;;1.70;99.90;;;;;;6098887;23;20406;-77
2021/01/04 01:36:18;;;;;;;38.80;32.70;;;1.60;99.90;;;;;;6100570;23;20386;-77
2021/01/04 01:39:14;;;;;;;40.80;32.20;;;1.60;99.90;;;;;;6100073;23;20378;-77
2021/01/04 01:42:08;;;;;;;36.17;31.20;;;1.70;99.90;;;;;;6100621;23;20488;-78
2021/01/04 01:44:42;;;;;;;38.73;32.97;;;1.60;99.90;;;;;;6098949;23;20497;-78
2021/01/04 01:47:16;;;;;;;40.47;31.67;;;1.60;99.90;;;;;;6099114;23;20897;-78
2021/01/04 01:49:58;;;;;;;44.43;34.63;;;1.60;99.90;;;;;;6099976;23;20421;-78
2021/01/04 01:52:48;;;;;;;38.37;31.90;;;1.70;99.90;;;;;;6099278;23;20446;-77
2021/01/04 01:55:51;;;;;;;39.23;33.43;;;1.60;99.90;;;;;;6100691;23;20422;-77
2021/01/04 01:59:02;;;;;;;39.77;31.70;;;1.60;99.90;;;;;;6098715;23;20420;-78
2021/01/04 02:01:37;;;;;;;41.23;33.93;;;1.60;99.90;;;;;;6100462;23;20399;-77
2021/01/04 02:04:11;;;;;;;40.90;32.60;;;1.70;99.90;;;;;;6101253;23;20424;-78
2021/01/04 02:07:03;;;;;;;38.33;33.13;;;1.60;99.90;;;;;;6099525;23;20471;-77
2021/01/04 02:09:32;;;;;;;40.77;32.87;;;1.60;99.90;;;;;;6098356;23;20429;-78
2021/01/04 02:12:09;;;;;;;40.17;33.03;;;1.60;99.90;;;;;;6097647;23;20437;-77
2021/01/04 02:14:43;;;;;;;37.73;32.17;;;1.60;99.90;;;;;;6099498;23;20766;-77
2021/01/04 02:17:24;;;;;;;36.70;32.17;;;1.60;99.90;;;;;;6099212;23;20383;-77
2021/01/04 02:20:35;;;;;;;41.07;33.63;;;1.60;99.90;;;;;;6098371;23;20414;-77
2021/01/04 02:23:18;;;;;;;40.77;32.03;;;1.60;99.90;;;;;;6019677;23;20443;-78
2021/01/04 02:25:48;;;;;;;39.60;32.13;;;1.60;99.90;;;;;;6090631;23;20422;-77
2021/01/04 02:28:20;;;;;;;39.23;32.30;;;1.60;99.90;;;;;;6098314;23;20383;-77
2021/01/04 02:30:48;;;;;;;35.57;31.60;;;1.60;99.90;;;;;;6097425;23;20439;-77
2021/01/04 02:33:17;;;;;;;44.10;34.57;;;1.60;99.90;;;;;;6097102;23;20430;-78
2021/01/04 02:35:45;;;;;;;41.73;34.10;;;1.60;99.90;;;;;;6098587;23;20397;-77
2021/01/04 02:38:11;;;;;;;38.87;32.33;;;1.60;99.90;;;;;;6097065;23;20426;-77
2021/01/04 02:40:37;;;;;;;37.20;31.67;;;1.60;99.90;;;;;;6097144;23;20441;-77
2021/01/04 02:43:05;;;;;;;35.13;31.43;;;1.60;99.90;;;;;;6098186;23;20461;-78
2021/01/04 02:45:33;;;;;;;41.27;33.43;;;1.70;99.90;;;;;;6096928;23;20410;-77
2021/01/04 02:48:15;;;;;;;40.60;32.93;;;1.60;99.90;;;;;;6096830;23;20431;-77
2021/01/04 02:50:51;;;;;;;41.57;34.13;;;1.60;99.90;;;;;;6098564;23;20492;-77
2021/01/04 02:53:36;;;;;;;36.20;31.53;;;1.70;99.90;;;;;;6096935;23;20413;-77
2021/01/04 02:56:14;;;;;;;43.33;35.40;;;1.60;99.90;;;;;;6097586;23;20908;-77
2021/01/04 02:58:56;;;;;;;37.43;32.80;;;1.70;99.90;;;;;;6098707;23;20382;-78
2021/01/04 03:01:25;;;;;;;38.67;30.40;;;1.70;99.90;;;;;;6098449;23;20382;-78
2021/01/04 03:03:52;;;;;;;40.30;33.67;;;1.70;99.90;;;;;;6096533;23;21003;-77
2021/01/04 03:06:25;;;;;;;41.83;34.67;;;1.70;99.90;;;;;;6098514;23;20409;-78
2021/01/04 03:08:51;;;;;;;37.77;32.37;;;1.60;99.90;;;;;;6096172;23;20415;-77
2021/01/04 03:11:18;;;;;;;41.30;34.57;;;1.60;99.90;;;;;;6096412;23;20418;-77
2021/01/04 03:13:55;;;;;;;37.17;31.10;;;1.60;99.90;;;;;;6096620;23;20429;-78
2021/01/04 03:16:29;;;;;;;34.67;29.90;;;1.60;99.90;;;;;;6097101;23;20410;-77
2021/01/04 03:19:00;;;;;;;35.17;31.37;;;1.60;99.90;;;;;;6097820;23;20382;-77
2021/01/04 03:21:28;;;;;;;38.47;31.80;;;1.70;99.90;;;;;;6096033;23;20414;-77
2021/01/04 03:23:56;;;;;;;35.63;31.80;;;1.70;99.90;;;;;;6096614;23;20937;-77
2021/01/04 03:26:25;;;;;;;35.10;30.70;;;1.70;99.90;;;;;;6096775;23;20429;-77
2021/01/04 03:28:52;;;;;;;33.53;29.77;;;1.70;99.90;;;;;;6097852;23;20390;-78
2021/01/04 03:31:19;;;;;;;37.97;31.97;;;1.70;99.90;;;;;;6098640;23;20387;-79
2021/01/04 03:33:46;;;;;;;36.47;31.30;;;1.70;99.90;;;;;;6097425;23;20422;-77
2021/01/04 03:36:13;;;;;;;38.23;32.03;;;1.70;99.90;;;;;;6094970;23;20442;-76
2021/01/04 03:38:39;;;;;;;34.03;30.13;;;1.70;99.90;;;;;;6093664;23;20485;-76
2021/01/04 03:41:06;;;;;;;32.57;29.13;;;1.70;99.90;;;;;;6095919;23;20414;-76
2021/01/04 03:43:32;;;;;;;37.27;33.13;;;1.70;99.90;;;;;;6095414;23;20435;-77
2021/01/04 03:45:59;;;;;;;39.10;33.00;;;1.80;99.90;;;;;;6095825;23;20388;-76
2021/01/04 03:48:26;;;;;;;40.63;33.40;;;1.70;99.90;;;;;;6095254;23;20731;-76
2021/01/04 03:50:53;;;;;;;40.43;33.53;;;1.70;99.90;;;;;;6095689;23;20918;-75
2021/01/04 03:53:19;;;;;;;42.93;33.37;;;1.70;99.90;;;;;;6094532;23;20778;-76
2021/01/04 03:55:45;;;;;;;35.63;31.50;;;1.70;99.90;;;;;;6096826;23;20861;-77
2021/01/04 03:58:12;;;;;;;36.07;30.60;;;1.70;99.90;;;;;;6095113;23;20430;-74
2021/01/04 04:00:38;;;;;;;34.67;30.77;;;1.80;99.90;;;;;;6095828;23;20420;-76
2021/01/04 04:03:06;;;;;;;35.33;31.50;;;1.70;99.90;;;;;;6096351;23;20460;-76
2021/01/04 04:05:33;;;;;;;39.33;33.13;;;1.70;99.90;;;;;;6093874;23;20423;-76
2021/01/04 04:08:01;;;;;;;37.77;32.00;;;1.70;99.90;;;;;;6094641;23;20418;-78
2021/01/04 04:10:28;;;;;;;36.10;31.67;;;1.70;99.90;;;;;;6095600;23;20436;-78
2021/01/04 04:12:55;;;;;;;41.03;32.20;;;1.70;99.90;;;;;;6098804;23;20412;-77
2021/01/04 04:15:22;;;;;;;39.83;33.87;;;1.70;99.90;;;;;;6098287;23;20395;-77
2021/01/04 04:17:49;;;;;;;37.47;33.40;;;1.60;99.90;;;;;;6095691;23;20421;-78
2021/01/04 04:20:19;;;;;;;36.77;32.63;;;1.70;99.90;;;;;;6093577;23;20438;-80
2021/01/04 04:22:47;;;;;;;37.03;32.67;;;1.60;99.90;;;;;;6095777;23;20781;-77
2021/01/04 04:25:15;;;;;;;38.10;32.00;;;1.70;99.90;;;;;;6095683;23;20394;-78
2021/01/04 04:27:42;;;;;;;39.37;31.83;;;1.60;99.90;;;;;;6092584;23;20418;-77
2021/01/04 04:30:10;;;;;;;43.80;34.80;;;1.70;99.90;;;;;;6093854;23;20415;-77
2021/01/04 04:32:37;;;;;;;39.90;33.27;;;1.60;99.90;;;;;;6093990;23;20760;-77
2021/01/04 04:35:04;;;;;;;38.80;33.83;;;1.60;99.90;;;;;;6092639;23;20804;-78
2021/01/04 04:37:31;;;;;;;38.63;31.57;;;1.50;99.90;;;;;;6094038;23;20901;-77
2021/01/04 04:39:57;;;;;;;39.30;32.37;;;1.60;99.90;;;;;;6093796;23;20505;-77
2021/01/04 04:42:24;;;;;;;41.93;34.83;;;1.60;99.90;;;;;;6096142;23;20427;-78
2021/01/04 04:44:58;;;;;;;38.00;33.30;;;1.60;99.90;;;;;;6096094;23;20467;-77
2021/01/04 04:47:36;;;;;;;40.90;34.07;;;1.60;99.90;;;;;;6095832;23;20415;-78
2021/01/04 04:50:21;;;;;;;36.73;32.03;;;1.60;99.90;;;;;;6097212;23;20465;-78
2021/01/04 04:53:20;;;;;;;37.53;31.63;;;1.60;99.90;;;;;;6095834;23;20399;-77
2021/01/04 04:56:27;;;;;;;40.20;32.93;;;1.60;99.90;;;;;;6097140;23;20396;-78
2021/01/04 04:59:00;;;;;;;40.70;33.03;;;1.70;99.90;;;;;;6098661;23;20733;-77
2021/01/04 05:01:42;;;;;;;42.17;31.70;;;1.70;99.90;;;;;;6097608;23;20807;-77
2021/01/04 05:04:30;;;;;;;36.63;30.73;;;1.70;99.90;;;;;;6099866;23;20461;-77
2021/01/04 05:06:59;;;;;;;36.97;31.67;;;1.70;99.90;;;;;;6098472;23;20893;-77
2021/01/04 05:09:45;;;;;;;39.23;32.57;;;1.70;99.90;;;;;;6096065;23;20945;-78
2021/01/04 05:12:24;;;;;;;38.30;32.53;;;1.70;99.90;;;;;;6095589;23;20918;-78
2021/01/04 05:14:55;;;;;;;39.00;33.17;;;1.70;99.90;;;;;;6095824;23;20756;-78
2021/01/04 05:17:51;;;;;;;39.13;34.13;;;1.70;99.90;;;;;;6097229;23;20405;-78
2021/01/04 05:20:30;;;;;;;37.93;32.03;;;1.60;99.90;;;;;;6095556;23;20836;-78
2021/01/04 05:23:33;;;;;;;37.60;33.53;;;1.60;99.90;;;;;;6095810;23;20521;-78
2021/01/04 05:26:28;;;;;;;38.27;32.77;;;1.60;99.90;;;;;;6074272;23;20738;-78
2021/01/04 05:29:41;;;;;;;37.37;32.50;;;1.60;99.90;;;;;;6095663;23;20418;-78
2021/01/04 05:32:28;;;;;;;41.37;33.17;;;1.60;99.90;;;;;;6095712;23;20963;-78
2021/01/04 05:34:59;;;;;;;42.27;33.33;;;1.60;99.90;;;;;;6095869;23;20425;-78
2021/01/04 05:37:34;;;;;;;40.70;34.00;;;1.60;99.90;;;;;;6096081;23;20408;-78
2021/01/04 05:40:26;;;;;;;35.13;31.43;;;1.60;99.90;;;;;;6097461;23;20413;-78
2021/01/04 05:43:12;;;;;;;39.13;32.27;;;1.60;99.90;;;;;;6097158;23;20891;-78
2021/01/04 05:45:45;;;;;;;34.43;30.23;;;1.50;99.90;;;;;;6099506;23;20375;-78
2021/01/04 05:48:18;;;;;;;39.27;33.17;;;1.60;99.90;;;;;;6099711;23;20435;-77
2021/01/04 05:50:56;;;;;;;35.13;31.47;;;1.60;99.90;;;;;;6098123;23;20434;-78
2021/01/04 05:53:22;;;;;;;38.23;31.87;;;1.60;99.90;;;;;;6094802;23;20417;-77
2021/01/04 05:55:54;;;;;;;36.83;31.50;;;1.60;99.90;;;;;;6095619;23;20418;-79
2021/01/04 05:58:26;;;;;;;43.87;35.00;;;1.60;99.90;;;;;;6095379;23;20430;-77
2021/01/04 06:00:52;;;;;;;39.20;33.80;;;1.60;99.90;;;;;;6098673;23;20417;-78
2021/01/04 06:03:22;;;;;;;36.13;31.73;;;1.60;99.90;;;;;;6098626;23;20563;-78
2021/01/04 06:05:50;;;;;;;41.73;33.93;;;1.60;99.90;;;;;;6122014;23;20975;-78
2021/01/04 06:08:25;;;;;;;35.80;32.07;;;1.60;99.90;;;;;;6098723;23;20399;-78
2021/01/04 06:10:55;;;;;;;41.53;33.27;;;1.60;99.90;;;;;;6097826;23;20411;-78
2021/01/04 06:13:22;;;;;;;36.40;31.80;;;1.60;99.90;;;;;;6095591;23;20422;-78
2021/01/04 06:15:48;;;;;;;35.43;31.60;;;1.60;99.90;;;;;;6097139;23;20441;-78
2021/01/04 06:18:23;;;;;;;45.30;34.60;;;1.60;99.90;;;;;;6098680;23;20395;-77
2021/01/04 06:21:14;;;;;;;39.37;32.63;;;1.70;99.90;;;;;;6099425;23;20417;-78
2021/01/04 06:23:41;;;;;;;41.83;34.17;;;1.60;99.90;;;;;;6098287;23;20507;-77
2021/01/04 06:26:13;;;;;;;38.00;32.47;;;1.60;99.90;;;;;;6098517;23;20399;-77
2021/01/04 06:28:51;;;;;;;40.37;33.27;;;1.60;99.90;;;;;;6096685;23;20912;-77
2021/01/04 06:31:28;;;;;;;38.40;33.27;;;1.60;99.90;;;;;;6099201;23;20846;-77
2021/01/04 06:33:58;;;;;;;38.63;31.80;;;1.60;99.90;;;;;;6097478;23;20408;-77
2021/01/04 06:36:24;;;;;;;36.90;31.90;;;1.60;99.90;;;;;;6096180;23;20470;-77
2021/01/04 06:38:52;;;;;;;37.30;32.30;;;1.60;99.90;;;;;;6098970;23;20405;-78
2021/01/04 06:41:31;;;;;;;36.77;32.07;;;1.70;99.90;;;;;;6097343;23;20414;-78
2021/01/04 06:44:10;;;;;;;39.30;33.13;;;1.70;99.90;;;;;;6097235;23;20425;-77
2021/01/04 06:46:48;;;;;;;42.97;33.17;;;1.70;99.90;;;;;;6096528;23;20406;-78
2021/01/04 06:49:19;;;;;;;38.73;32.07;;;1.70;99.90;;;;;;6098905;23;20413;-77
2021/01/04 06:52:31;;;;;;;41.63;34.43;;;1.70;99.90;;;;;;6097443;23;20782;-78
2021/01/04 06:55:13;;;;;;;37.20;32.03;;;1.80;99.90;;;;;;6088428;23;20420;-78
2021/01/04 06:58:13;;;;;;;35.07;31.30;;;1.70;99.90;;;;;;6097438;23;20410;-77
2021/01/04 07:01:02;;;;;;;39.37;32.47;;;1.70;99.90;;;;;;6116555;23;20471;-77
2021/01/04 07:03:45;;;;;;;39.17;32.60;;;1.70;99.90;;;;;;6097392;23;20438;-77
2021/01/04 07:06:35;;;;;;;43.43;34.93;;;1.70;99.90;;;;;;6099369;23;20387;-77
2021/01/04 07:09:25;;;;;;;47.30;34.40;;;1.60;99.90;;;;;;6098851;23;20478;-78
2021/01/04 07:11:58;;;;;;;40.83;32.13;;;1.60;99.90;;;;;;6098478;23;20406;-77
2021/01/04 07:14:48;;;;;;;41.00;35.77;;;1.60;99.90;;;;;;6096014;23;20754;-77
2021/01/04 07:17:28;;;;;;;43.50;33.77;;;1.60;99.90;;;;;;6097749;23;20383;-77
2021/01/04 07:20:14;;;;;;;36.33;32.37;;;1.50;99.90;;;;;;6096560;23;20489;-78
2021/01/04 07:22:54;;;;;;;39.43;33.43;;;1.60;99.90;;;;;;6098273;23;20381;-78
2021/01/04 07:25:27;;;;;;;36.03;31.03;;;1.50;99.90;;;;;;6096410;23;20441;-77
2021/01/04 07:28:01;;;;;;;35.17;31.23;;;1.60;99.90;;;;;;6097764;23;20463;-77
2021/01/04 07:30:50;;;;;;;44.37;35.27;;;1.60;99.90;;;;;;6095797;23;20774;-77
2021/01/04 07:33:35;;;;;;;40.30;32.27;;;1.50;99.90;;;;;;6098044;23;20418;-78
2021/01/04 07:36:09;;;;;;;43.27;35.97;;;1.60;99.90;;;;;;6100165;23;20403;-78
2021/01/04 07:38:50;;;;;;;40.60;32.63;;;1.60;99.90;;;;;;6098655;23;20411;-78
2021/01/04 07:41:22;;;;;;;43.43;33.80;;;1.70;99.90;;;;;;6098553;23;20427;-77
2021/01/04 07:44:07;;;;;;;39.03;32.77;;;1.60;99.90;;;;;;6096150;23;20437;-78
2021/01/04 07:47:06;;;;;;;38.43;32.17;;;1.70;99.90;;;;;;6098114;23;20387;-77
2021/01/04 07:50:09;;;;;;;33.23;29.17;;;1.70;99.90;;;;;;6093631;23;20957;-78
2021/01/04 07:53:09;;;;;;;36.40;31.83;;;1.70;99.90;;;;;;6074379;23;20758;-77
2021/01/04 07:55:54;;;;;;;40.00;33.73;;;1.70;99.90;;;;;;6097649;23;20462;-78
2021/01/04 07:58:50;;;;;;;38.60;33.10;;;1.70;99.90;;;;;;6096550;23;20757;-78
2021/01/04 08:02:04;;;;;;;35.57;31.27;;;1.70;99.90;;;;;;6071773;23;20424;-77
2021/01/04 08:04:53;;;;;;;36.67;32.53;;;1.70;99.90;;;;;;6097691;23;20429;-77
2021/01/04 08:08:01;;;;;;;39.60;33.13;;;1.70;99.90;;;;;;6095987;23;20399;-77
2021/01/04 08:10:51;;;;;;;39.83;31.73;;;1.70;99.90;;;;;;6040666;23;20438;-78
2021/01/04 08:13:59;;;;;;;36.80;30.57;;;1.70;99.90;;;;;;6095965;23;20512;-77
2021/01/04 08:16:29;;;;;;;37.20;33.17;;;1.70;99.90;;;;;;6094373;23;20417;-78
2021/01/04 08:18:57;;;;;;;41.10;34.77;;;1.70;99.90;;;;;;6095611;23;20869;-78
2021/01/04 08:21:33;;;;;;;36.77;32.70;;;1.70;99.90;;;;;;6097515;23;20394;-77
2021/01/04 08:24:10;;;;;;;37.87;32.53;;;1.80;99.90;;;;;;6095936;23;20470;-78
2021/01/04 08:27:06;;;;;;;35.93;31.87;;;1.80;99.90;;;;;;6097388;23;20370;-78
2021/01/04 08:29:42;;;;;;;37.80;32.43;;;1.90;99.90;;;;;;6095809;23;20441;-77
2021/01/04 08:32:19;;;;;;;39.90;32.93;;;1.90;99.90;;;;;;6097709;23;20379;-82
2021/01/04 08:34:47;;;;;;;38.30;31.60;;;1.90;99.90;;;;;;6095815;23;20390;-76
2021/01/04 08:37:18;;;;;;;36.80;30.63;;;2.00;99.90;;;;;;6093259;23;20425;-77
2021/01/04 08:39:47;;;;;;;35.03;29.40;;;2.00;99.90;;;;;;6095023;23;20414;-77
2021/01/04 08:42:30;;;;;;;34.47;30.67;;;2.10;99.90;;;;;;6093726;23;20424;-78
2021/01/04 08:44:59;;;;;;;39.30;33.10;;;2.00;99.90;;;;;;6097039;23;20424;-77
2021/01/04 08:47:35;;;;;;;40.07;32.97;;;2.00;99.90;;;;;;6097916;23;20396;-78
2021/01/04 08:50:29;;;;;;;38.50;32.03;;;1.90;99.90;;;;;;6096002;23;20413;-77
2021/01/04 08:53:11;;;;;;;38.60;31.73;;;1.90;99.90;;;;;;6097656;23;20419;-77
2021/01/04 08:55:38;;;;;;;34.13;30.43;;;2.00;99.90;;;;;;6095907;23;20414;-77
2021/01/04 08:58:25;;;;;;;34.30;30.60;;;2.00;99.90;;;;;;6096436;23;20438;-77
2021/01/04 09:00:58;;;;;;;39.53;30.67;;;2.10;99.90;;;;;;6096282;23;20437;-77
2021/01/04 09:03:27;;;;;;;34.47;30.73;;;2.10;99.90;;;;;;6098079;23;20406;-78
2021/01/04 09:05:53;;;;;;;36.47;30.60;;;2.10;99.90;;;;;;6096847;23;20410;-77
2021/01/04 09:08:30;;;;;;;37.07;31.43;;;2.00;99.90;;;;;;6097858;23;20454;-77
2021/01/04 09:11:03;;;;;;;37.37;31.83;;;2.10;99.90;;;;;;6096792;23;20961;-77
2021/01/04 09:13:33;;;;;;;39.43;34.03;;;2.10;99.90;;;;;;6096922;23;20439;-77
2021/01/04 09:16:10;;;;;;;38.63;32.20;;;2.10;99.90;;;;;;6096669;23;20418;-77
2021/01/04 09:18:42;;;;;;;36.20;30.77;;;2.10;99.90;;;;;;6097530;23;20753;-78
2021/01/04 09:21:23;;;;;;;38.13;29.30;;;2.20;99.90;;;;;;6100619;23;20416;-77
2021/01/04 09:23:50;;;;;;;34.63;22.90;;;2.20;99.90;;;;;;6099178;23;20492;-77
2021/01/04 09:26:28;;;;;;;36.93;23.33;;;2.20;99.90;;;;;;6098399;23;20889;-77
2021/01/04 09:29:16;;;;;;;37.70;23.37;;;2.20;99.90;;;;;;6099920;23;20382;-77
2021/01/04 09:31:48;;;;;;;32.67;22.03;;;2.30;99.90;;;;;;6098701;23;20421;-78
2021/01/04 09:34:15;;;;;;;33.80;21.40;;;2.20;99.90;;;;;;6098648;23;20418;-77
2021/01/04 09:36:41;;;;;;;32.00;21.60;;;2.30;99.90;;;;;;6098732;23;20409;-77
2021/01/04 09:39:13;;;;;;;33.93;21.33;;;2.30;99.90;;;;;;6098023;23;20445;-77
2021/01/04 09:41:40;;;;;;;34.53;23.20;;;2.40;99.90;;;;;;6099805;23;20408;-77
2021/01/04 09:44:08;;;;;;;33.07;21.93;;;2.40;99.90;;;;;;6097721;23;20937;-78
2021/01/04 09:46:45;;;;;;;35.70;22.10;;;2.40;99.90;;;;;;6098129;23;20413;-78
2021/01/04 09:49:17;;;;;;;31.27;21.13;;;2.40;99.90;;;;;;6097714;23;20438;-77
2021/01/04 09:52:22;;;;;;;31.87;21.67;;;2.40;99.90;;;;;;6099933;23;20385;-77
2021/01/04 09:54:51;;;;;;;29.87;21.33;;;2.40;99.90;;;;;;6097527;23;20396;-77
2021/01/04 09:57:20;;;;;;;30.20;20.93;;;2.40;99.90;;;;;;6098519;23;20421;-77
2021/01/04 09:59:47;;;;;;;31.43;22.33;;;2.40;99.90;;;;;;6097998;23;20461;-77
2021/01/04 10:02:23;;;;;;;32.90;21.77;;;2.50;99.90;;;;;;6100390;23;20926;-78
2021/01/04 10:04:49;;;;;;;27.20;19.60;;;2.50;99.90;;;;;;6099365;23;20935;-77
2021/01/04 10:07:20;;;;;;;31.57;20.87;;;2.50;99.90;;;;;;6099410;23;20404;-77
2021/01/04 10:09:52;;;;;;;30.80;20.53;;;2.60;99.90;;;;;;6098958;23;20406;-78
2021/01/04 10:12:23;;;;;;;29.77;20.80;;;2.60;99.90;;;;;;6099570;23;20402;-78
2021/01/04 10:14:52;;;;;;;30.47;20.60;;;2.70;99.90;;;;;;6099367;23;20393;-77
2021/01/04 10:17:22;;;;;;;26.97;19.10;;;2.70;99.90;;;;;;6098022;23;20428;-77
2021/01/04 10:19:55;;;;;;;29.20;20.10;;;2.70;99.90;;;;;;6097889;23;20499;-77
2021/01/04 10:22:28;;;;;;;28.93;19.93;;;2.80;99.90;;;;;;6097474;23;20875;-77
2021/01/04 10:24:59;;;;;;;29.57;20.03;;;2.90;99.90;;;;;;6099327;23;20427;-77
2021/01/04 10:27:28;;;;;;;26.93;18.83;;;2.90;99.90;;;;;;6097184;23;20406;-77
2021/01/04 10:29:57;;;;;;;29.10;19.90;;;2.90;99.90;;;;;;6096101;23;20749;-77
2021/01/04 10:32:27;;;;;;;29.30;20.17;;;2.90;99.90;;;;;;6096581;23;20427;-77
2021/01/04 10:34:55;;;;;;;29.73;20.73;;;2.80;99.90;;;;;;6096758;23;20433;-77
2021/01/04 10:37:43;;;;;;;29.43;19.17;;;2.90;99.90;;;;;;6095582;23;20391;-77
2021/01/04 10:40:13;;;;;;;28.17;19.23;;;2.80;99.90;;;;;;6094768;23;20451;-77
2021/01/04 10:42:41;;;;;;;26.63;17.63;;;2.80;99.90;;;;;;6094686;23;20418;-77
2021/01/04 10:45:14;;;;;;;25.77;17.27;;;2.80;99.90;;;;;;6119102;23;21069;-77
2021/01/04 10:47:49;;;;;;;21.30;15.50;;;2.80;99.90;;;;;;6096454;23;20379;-77
2021/01/04 10:50:18;;;;;;;23.33;16.17;;;2.80;99.90;;;;;;6095863;23;20409;-77
2021/01/04 10:52:54;;;;;;;21.77;15.27;;;2.80;99.90;;;;;;6094834;23;20408;-77
2021/01/04 10:55:24;;;;;;;19.80;13.97;;;2.90;99.90;;;;;;6094640;23;20821;-77
2021/01/04 10:57:54;;;;;;;21.27;14.80;;;2.90;99.90;;;;;;6096367;23;20397;-77
2021/01/04 11:00:24;;;;;;;20.07;14.07;;;3.00;99.90;;;;;;6095967;23;20958;-77
2021/01/04 11:02:53;;;;;;;20.00;14.57;;;2.90;99.90;;;;;;6094455;23;20419;-76
2021/01/04 11:05:33;;;;;;;18.07;12.50;;;2.90;99.90;;;;;;6094524;23;20971;-77
2021/01/04 11:08:10;;;;;;;17.43;12.03;;;2.80;99.90;;;;;;6095970;23;20404;-77
2021/01/04 11:10:38;;;;;;;15.37;11.90;;;2.80;99.90;;;;;;6094488;23;20443;-77
2021/01/04 11:13:04;;;;;;;17.40;12.80;;;2.80;99.90;;;;;;6095754;23;20454;-77
2021/01/04 11:15:34;;;;;;;15.57;11.37;;;2.80;99.90;;;;;;6094483;23;20422;-77
2021/01/04 11:18:08;;;;;;;16.07;11.50;;;2.80;99.90;;;;;;6095761;23;20449;-77
2021/01/04 11:20:35;;;;;;;16.80;11.57;;;2.80;99.90;;;;;;6094126;23;20438;-77
2021/01/04 11:23:04;;;;;;;14.97;10.77;;;2.70;99.90;;;;;;6096217;23;20398;-78
2021/01/04 11:25:31;;;;;;;13.97;10.80;;;2.70;99.90;;;;;;6096796;23;20445;-76
2021/01/04 11:27:58;;;;;;;13.40;10.43;;;2.70;99.90;;;;;;6095837;23;20389;-76
2021/01/04 11:30:25;;;;;;;16.00;11.67;;;2.70;99.90;;;;;;6093899;23;20501;-77
2021/01/04 11:32:51;;;;;;;18.60;12.50;;;2.80;99.90;;;;;;6096051;23;20391;-76
2021/01/04 11:35:18;;;;;;;15.63;12.00;;;2.70;99.90;;;;;;6094792;23;20412;-76
2021/01/04 11:37:45;;;;;;;14.77;11.20;;;2.70;99.90;;;;;;6099257;23;20386;-76
2021/01/04 11:40:13;;;;;;;19.43;13.47;;;2.70;99.90;;;;;;6095731;23;20428;-77
2021/01/04 11:42:39;;;;;;;19.63;13.07;;;2.70;99.90;;;;;;6095792;23;20394;-76
2021/01/04 11:45:09;;;;;;;21.83;15.37;;;2.60;99.90;;;;;;6098620;23;20937;-78
2021/01/04 11:47:36;;;;;;;21.00;14.03;;;2.60;99.90;;;;;;6097364;23;20390;-75
2021/01/04 11:50:05;;;;;;;22.17;14.47;;;2.60;99.90;;;;;;6094067;23;20449;-75
2021/01/04 11:52:32;;;;;;;22.47;14.80;;;2.60;99.90;;;;;;6095485;23;20414;-77
2021/01/04 11:54:58;;;;;;;19.87;13.27;;;2.60;99.90;;;;;;6098417;23;20728;-76
2021/01/04 11:57:25;;;;;;;23.50;15.57;;;2.70;99.90;;;;;;6094303;23;20418;-76
2021/01/04 11:59:51;;;;;;;24.50;15.40;;;2.60;99.90;;;;;;6095278;23;20428;-75
2021/01/04 12:02:18;;;;;;;21.30;15.53;;;2.60;99.90;;;;;;6094439;23;21061;-76
2021/01/04 12:04:44;;;;;;;21.77;14.57;;;2.60;99.90;;;;;;6095656;23;20441;-76
2021/01/04 12:07:11;;;;;;;25.23;16.70;;;2.60;99.90;;;;;;6094073;23;20525;-76
2021/01/04 12:09:38;;;;;;;22.33;15.53;;;2.60;99.90;;;;;;6093747;23;20445;-76
2021/01/04 12:12:06;;;;;;;23.90;16.20;;;2.50;99.90;;;;;;6095851;23;20893;-76
2021/01/04 12:14:32;;;;;;;22.67;15.63;;;2.60;99.90;;;;;;6096148;23;20394;-75
2021/01/04 12:17:03;;;;;;;25.20;15.93;;;2.60;99.90;;;;;;6095695;23;20392;-78
2021/01/04 12:19:30;;;;;;;25.00;16.87;;;2.60;99.90;;;;;;6094449;23;20417;-76
2021/01/04 12:22:01;;;;;;;27.70;18.07;;;2.60;99.90;;;;;;6093589;23;20469;-77
2021/01/04 12:24:27;;;;;;;29.70;18.17;;;2.50;99.90;;;;;;6118251;23;20584;-77
2021/01/04 12:26:53;;;;;;;27.57;17.40;;;2.50;99.90;;;;;;6095159;23;20391;-77
2021/01/04 12:29:20;;;;;;;30.13;18.40;;;2.50;99.90;;;;;;6093152;23;20445;-76
2021/01/04 12:31:46;;;;;;;29.13;18.37;;;2.50;99.90;;;;;;6095402;23;20409;-77
2021/01/04 12:34:13;;;;;;;30.20;18.00;;;2.50;99.90;;;;;;6094097;23;20416;-77
2021/01/04 12:36:40;;;;;;;29.87;18.40;;;2.50;99.90;;;;;;6095411;23;20393;-77
2021/01/04 12:39:06;;;;;;;26.10;17.37;;;2.50;99.90;;;;;;6093366;23;20452;-77
2021/01/04 12:41:37;;;;;;;25.50;17.03;;;2.50;99.90;;;;;;6095240;23;20423;-76
2021/01/04 12:44:04;;;;;;;29.50;17.07;;;2.40;99.90;;;;;;6095538;23;20509;-76
2021/01/04 12:46:30;;;;;;;30.03;18.03;;;2.40;99.90;;;;;;6095814;23;20451;-77
2021/01/04 12:48:57;;;;;;;28.70;17.60;;;2.40;99.90;;;;;;6094909;23;20472;-77
2021/01/04 12:51:23;;;;;;;27.37;18.00;;;2.40;99.90;;;;;;6093557;23;20413;-77
2021/01/04 12:53:50;;;;;;;29.77;17.90;;;2.40;99.90;;;;;;6095160;23;20467;-77
2021/01/04 12:56:17;;;;;;;27.70;17.87;;;2.40;99.90;;;;;;6097485;23;20394;-77
2021/01/04 12:58:44;;;;;;;30.57;18.50;;;2.40;99.90;;;;;;6093514;23;20767;-76
2021/01/04 13:01:11;;;;;;;30.23;17.73;;;2.40;99.90;;;;;;6095833;23;20442;-77
2021/01/04 13:03:38;;;;;;;28.70;17.20;;;2.40;99.90;;;;;;6095288;23;20811;-77
2021/01/04 13:06:04;;;;;;;28.80;17.53;;;2.40;99.90;;;;;;6097552;23;20444;-77
2021/01/04 13:08:34;;;;;;;28.90;18.00;;;2.40;99.90;;;;;;6095494;23;20535;-77
2021/01/04 13:11:01;;;;;;;26.37;17.83;;;2.40;99.90;;;;;;6095864;23;20461;-77
2021/01/04 13:13:28;;;;;;;31.17;17.93;;;2.40;99.90;;;;;;6097848;23;20431;-77
2021/01/04 13:15:54;;;;;;;28.57;17.63;;;2.40;99.90;;;;;;6095763;23;20414;-77